sensor_id;sensor_type;location;lat;lon;timestamp;temperature;humidity
54576;DHT22;40472;53.486;14.542;2023-06-05T00:00:21;10.90;94.40
54576;DHT22;40472;53.486;14.542;2023-06-05T00:02:46;10.80;94.30
54576;DHT22;40472;53.486;14.542;2023-06-05T00:05:13;10.70;95.10
54576;DHT22;40472;53.486;14.542;2023-06-05T00:07:41;10.70;95.10
54576;DHT22;40472;53.486;14.542;2023-06-05T00:10:07;10.60;95.90
54576;DHT22;40472;53.486;14.542;2023-06-05T00:12:34;10.50;95.50
54576;DHT22;40472;53.486;14.542;2023-06-05T00:15:00;10.40;95.40
54576;DHT22;40472;53.486;14.542;2023-06-05T00:17:27;10.40;95.40
54576;DHT22;40472;53.486;14.542;2023-06-05T00:19:53;10.40;95.50
54576;DHT22;40472;53.486;14.542;2023-06-05T00:22:19;10.30;95.80
54576;DHT22;40472;53.486;14.542;2023-06-05T00:24:45;10.30;95.90
54576;DHT22;40472;53.486;14.542;2023-06-05T00:27:11;10.30;96.00
54576;DHT22;40472;53.486;14.542;2023-06-05T00:29:36;10.20;96.10
54576;DHT22;40472;53.486;14.542;2023-06-05T00:32:02;10.20;96.20
54576;DHT22;40472;53.486;14.542;2023-06-05T00:34:28;10.10;96.60
54576;DHT22;40472;53.486;14.542;2023-06-05T00:36:53;10.10;96.80
54576;DHT22;40472;53.486;14.542;2023-06-05T00:39:20;10.10;97.00
54576;DHT22;40472;53.486;14.542;2023-06-05T00:41:46;10.10;97.20
54576;DHT22;40472;53.486;14.542;2023-06-05T00:44:12;10.20;97.10
54576;DHT22;40472;53.486;14.542;2023-06-05T00:46:38;10.30;97.00
54576;DHT22;40472;53.486;14.542;2023-06-05T00:49:06;10.40;96.90
54576;DHT22;40472;53.486;14.542;2023-06-05T00:51:31;10.40;96.80
54576;DHT22;40472;53.486;14.542;2023-06-05T00:53:57;10.40;97.00
54576;DHT22;40472;53.486;14.542;2023-06-05T00:56:24;10.40;96.90
54576;DHT22;40472;53.486;14.542;2023-06-05T00:58:50;10.30;96.90
54576;DHT22;40472;53.486;14.542;2023-06-05T01:01:17;10.40;97.00
54576;DHT22;40472;53.486;14.542;2023-06-05T01:03:46;10.40;96.90
54576;DHT22;40472;53.486;14.542;2023-06-05T01:06:13;10.50;97.00
54576;DHT22;40472;53.486;14.542;2023-06-05T01:08:42;10.50;96.70
54576;DHT22;40472;53.486;14.542;2023-06-05T01:11:22;10.60;96.60
54576;DHT22;40472;53.486;14.542;2023-06-05T01:14:40;10.60;96.50
54576;DHT22;40472;53.486;14.542;2023-06-05T01:16:42;10.70;96.30
54576;DHT22;40472;53.486;14.542;2023-06-05T01:19:13;10.70;96.20
54576;DHT22;40472;53.486;14.542;2023-06-05T01:21:40;10.70;96.40
54576;DHT22;40472;53.486;14.542;2023-06-05T01:24:06;10.60;96.50
54576;DHT22;40472;53.486;14.542;2023-06-05T01:34:55;10.40;97.20
54576;DHT22;40472;53.486;14.542;2023-06-05T01:37:22;10.50;97.10
54576;DHT22;40472;53.486;14.542;2023-06-05T01:39:51;10.50;97.00
54576;DHT22;40472;53.486;14.542;2023-06-05T01:42:19;10.40;97.10
54576;DHT22;40472;53.486;14.542;2023-06-05T01:44:45;10.30;97.10
54576;DHT22;40472;53.486;14.542;2023-06-05T01:47:11;10.10;97.50
54576;DHT22;40472;53.486;14.542;2023-06-05T01:49:37;10.10;97.80
54576;DHT22;40472;53.486;14.542;2023-06-05T01:52:03;10.00;98.20
54576;DHT22;40472;53.486;14.542;2023-06-05T01:54:29;10.00;98.40
54576;DHT22;40472;53.486;14.542;2023-06-05T01:56:59;9.90;98.60
54576;DHT22;40472;53.486;14.542;2023-06-05T01:59:25;9.80;98.80
54576;DHT22;40472;53.486;14.542;2023-06-05T02:01:51;9.80;98.90
54576;DHT22;40472;53.486;14.542;2023-06-05T02:04:16;9.80;99.00
54576;DHT22;40472;53.486;14.542;2023-06-05T02:06:44;9.90;98.70
54576;DHT22;40472;53.486;14.542;2023-06-05T02:09:11;9.90;98.70
54576;DHT22;40472;53.486;14.542;2023-06-05T02:11:40;9.80;98.80
54576;DHT22;40472;53.486;14.542;2023-06-05T02:14:07;9.80;98.70
54576;DHT22;40472;53.486;14.542;2023-06-05T02:16:34;9.70;99.00
54576;DHT22;40472;53.486;14.542;2023-06-05T02:19:01;9.70;99.10
54576;DHT22;40472;53.486;14.542;2023-06-05T02:21:30;9.70;99.00
54576;DHT22;40472;53.486;14.542;2023-06-05T02:23:58;9.70;99.00
54576;DHT22;40472;53.486;14.542;2023-06-05T02:26:24;9.70;98.90
54576;DHT22;40472;53.486;14.542;2023-06-05T02:28:51;9.70;99.00
54576;DHT22;40472;53.486;14.542;2023-06-05T02:31:23;9.70;98.90
54576;DHT22;40472;53.486;14.542;2023-06-05T02:33:55;9.70;98.90
54576;DHT22;40472;53.486;14.542;2023-06-05T02:36:25;9.70;99.10
54576;DHT22;40472;53.486;14.542;2023-06-05T02:38:52;9.70;99.00
54576;DHT22;40472;53.486;14.542;2023-06-05T02:41:18;9.70;98.90
54576;DHT22;40472;53.486;14.542;2023-06-05T02:43:44;9.70;98.90
54576;DHT22;40472;53.486;14.542;2023-06-05T02:46:11;9.70;98.90
54576;DHT22;40472;53.486;14.542;2023-06-05T02:48:37;9.60;99.00
54576;DHT22;40472;53.486;14.542;2023-06-05T02:51:03;9.50;99.40
54576;DHT22;40472;53.486;14.542;2023-06-05T02:53:29;9.40;99.80
54576;DHT22;40472;53.486;14.542;2023-06-05T02:55:55;9.30;99.90
54576;DHT22;40472;53.486;14.542;2023-06-05T02:58:21;9.20;99.90
54576;DHT22;40472;53.486;14.542;2023-06-05T03:00:47;9.20;99.90
54576;DHT22;40472;53.486;14.542;2023-06-05T03:03:15;9.10;99.90
54576;DHT22;40472;53.486;14.542;2023-06-05T03:05:42;9.20;99.90
54576;DHT22;40472;53.486;14.542;2023-06-05T03:08:10;9.20;99.90
54576;DHT22;40472;53.486;14.542;2023-06-05T03:10:36;9.20;99.90
54576;DHT22;40472;53.486;14.542;2023-06-05T03:13:02;9.20;99.90
54576;DHT22;40472;53.486;14.542;2023-06-05T03:15:28;9.20;99.90
54576;DHT22;40472;53.486;14.542;2023-06-05T03:17:53;9.30;99.90
54576;DHT22;40472;53.486;14.542;2023-06-05T03:20:19;9.30;99.90
54576;DHT22;40472;53.486;14.542;2023-06-05T03:22:45;9.40;99.90
54576;DHT22;40472;53.486;14.542;2023-06-05T03:25:11;9.50;99.90
54576;DHT22;40472;53.486;14.542;2023-06-05T03:27:37;9.60;99.90
54576;DHT22;40472;53.486;14.542;2023-06-05T03:30:06;9.70;99.90
54576;DHT22;40472;53.486;14.542;2023-06-05T03:32:32;9.70;99.90
54576;DHT22;40472;53.486;14.542;2023-06-05T03:34:57;9.80;99.90
54576;DHT22;40472;53.486;14.542;2023-06-05T03:37:23;10.00;99.90
54576;DHT22;40472;53.486;14.542;2023-06-05T03:39:49;10.10;99.90
54576;DHT22;40472;53.486;14.542;2023-06-05T03:42:15;10.10;99.90
54576;DHT22;40472;53.486;14.542;2023-06-05T03:44:41;10.10;99.90
54576;DHT22;40472;53.486;14.542;2023-06-05T03:47:06;10.10;99.90
54576;DHT22;40472;53.486;14.542;2023-06-05T03:49:33;10.20;99.90
54576;DHT22;40472;53.486;14.542;2023-06-05T03:52:01;10.20;99.90
54576;DHT22;40472;53.486;14.542;2023-06-05T03:54:28;10.20;99.90
54576;DHT22;40472;53.486;14.542;2023-06-05T03:56:57;10.30;99.90
54576;DHT22;40472;53.486;14.542;2023-06-05T03:59:26;10.30;99.90
54576;DHT22;40472;53.486;14.542;2023-06-05T04:01:54;10.40;99.90
54576;DHT22;40472;53.486;14.542;2023-06-05T04:04:20;10.40;99.90
54576;DHT22;40472;53.486;14.542;2023-06-05T04:06:46;10.60;99.90
54576;DHT22;40472;53.486;14.542;2023-06-05T04:09:12;10.70;99.90
54576;DHT22;40472;53.486;14.542;2023-06-05T04:11:42;10.80;99.90
54576;DHT22;40472;53.486;14.542;2023-06-05T04:14:09;11.00;99.90
54576;DHT22;40472;53.486;14.542;2023-06-05T04:16:36;11.00;99.90
54576;DHT22;40472;53.486;14.542;2023-06-05T04:19:07;11.00;99.90
54576;DHT22;40472;53.486;14.542;2023-06-05T04:21:35;11.10;99.90
54576;DHT22;40472;53.486;14.542;2023-06-05T04:24:02;11.20;99.90
54576;DHT22;40472;53.486;14.542;2023-06-05T04:26:35;11.30;99.90
54576;DHT22;40472;53.486;14.542;2023-06-05T04:29:02;11.40;99.90
54576;DHT22;40472;53.486;14.542;2023-06-05T04:31:30;11.50;99.90
54576;DHT22;40472;53.486;14.542;2023-06-05T04:33:56;11.60;99.90
54576;DHT22;40472;53.486;14.542;2023-06-05T04:36:23;11.80;99.90
54576;DHT22;40472;53.486;14.542;2023-06-05T04:38:49;11.90;99.90
54576;DHT22;40472;53.486;14.542;2023-06-05T04:41:14;12.10;99.90
54576;DHT22;40472;53.486;14.542;2023-06-05T04:43:40;12.20;99.90
54576;DHT22;40472;53.486;14.542;2023-06-05T04:46:06;12.30;99.90
54576;DHT22;40472;53.486;14.542;2023-06-05T04:48:32;12.50;99.80
54576;DHT22;40472;53.486;14.542;2023-06-05T04:51:00;12.60;99.80
54576;DHT22;40472;53.486;14.542;2023-06-05T04:53:26;12.70;99.60
54576;DHT22;40472;53.486;14.542;2023-06-05T04:55:54;12.80;99.40
54576;DHT22;40472;53.486;14.542;2023-06-05T04:58:21;12.90;99.00
54576;DHT22;40472;53.486;14.542;2023-06-05T05:00:47;12.90;98.70
54576;DHT22;40472;53.486;14.542;2023-06-05T05:03:14;13.00;98.20
54576;DHT22;40472;53.486;14.542;2023-06-05T05:05:43;13.10;97.80
54576;DHT22;40472;53.486;14.542;2023-06-05T05:08:09;13.20;97.20
54576;DHT22;40472;53.486;14.542;2023-06-05T05:10:35;13.30;96.80
54576;DHT22;40472;53.486;14.542;2023-06-05T05:13:00;13.50;96.40
54576;DHT22;40472;53.486;14.542;2023-06-05T05:15:27;13.50;95.20
54576;DHT22;40472;53.486;14.542;2023-06-05T05:17:55;13.50;95.00
54576;DHT22;40472;53.486;14.542;2023-06-05T05:20:22;13.60;95.60
54576;DHT22;40472;53.486;14.542;2023-06-05T05:22:48;13.60;95.90
54576;DHT22;40472;53.486;14.542;2023-06-05T05:25:14;13.70;95.70
54576;DHT22;40472;53.486;14.542;2023-06-05T05:27:40;13.70;95.80
54576;DHT22;40472;53.486;14.542;2023-06-05T05:30:07;13.80;95.70
54576;DHT22;40472;53.486;14.542;2023-06-05T05:32:33;13.90;94.90
54576;DHT22;40472;53.486;14.542;2023-06-05T05:34:58;13.90;94.90
54576;DHT22;40472;53.486;14.542;2023-06-05T05:37:24;14.00;94.30
54576;DHT22;40472;53.486;14.542;2023-06-05T05:39:51;14.00;94.70
54576;DHT22;40472;53.486;14.542;2023-06-05T05:42:17;14.10;93.80
54576;DHT22;40472;53.486;14.542;2023-06-05T05:44:43;14.10;93.80
54576;DHT22;40472;53.486;14.542;2023-06-05T05:47:10;14.10;93.70
54576;DHT22;40472;53.486;14.542;2023-06-05T05:49:36;14.30;93.60
54576;DHT22;40472;53.486;14.542;2023-06-05T05:52:02;14.20;93.70
54576;DHT22;40472;53.486;14.542;2023-06-05T05:54:29;14.20;94.40
54576;DHT22;40472;53.486;14.542;2023-06-05T05:56:55;14.30;94.10
54576;DHT22;40472;53.486;14.542;2023-06-05T05:59:21;14.40;94.00
54576;DHT22;40472;53.486;14.542;2023-06-05T06:01:51;14.40;93.50
54576;DHT22;40472;53.486;14.542;2023-06-05T06:04:19;14.40;92.70
54576;DHT22;40472;53.486;14.542;2023-06-05T06:06:45;14.50;93.20
54576;DHT22;40472;53.486;14.542;2023-06-05T06:09:14;14.50;92.40
54576;DHT22;40472;53.486;14.542;2023-06-05T06:11:41;14.60;92.70
54576;DHT22;40472;53.486;14.542;2023-06-05T06:14:07;14.60;92.90
54576;DHT22;40472;53.486;14.542;2023-06-05T06:16:36;14.70;93.30
54576;DHT22;40472;53.486;14.542;2023-06-05T06:19:02;14.80;93.30
54576;DHT22;40472;53.486;14.542;2023-06-05T06:21:29;14.90;92.80
54576;DHT22;40472;53.486;14.542;2023-06-05T06:23:55;15.10;91.60
54576;DHT22;40472;53.486;14.542;2023-06-05T06:26:21;15.10;91.80
54576;DHT22;40472;53.486;14.542;2023-06-05T06:28:47;15.20;91.30
54576;DHT22;40472;53.486;14.542;2023-06-05T06:31:12;15.30;91.80
54576;DHT22;40472;53.486;14.542;2023-06-05T06:33:39;15.30;91.10
54576;DHT22;40472;53.486;14.542;2023-06-05T06:36:04;15.40;90.80
54576;DHT22;40472;53.486;14.542;2023-06-05T06:38:30;15.50;90.80
54576;DHT22;40472;53.486;14.542;2023-06-05T06:40:58;15.50;92.00
54576;DHT22;40472;53.486;14.542;2023-06-05T06:43:23;15.70;92.00
54576;DHT22;40472;53.486;14.542;2023-06-05T06:45:49;15.80;90.40
54576;DHT22;40472;53.486;14.542;2023-06-05T06:48:16;16.00;89.60
54576;DHT22;40472;53.486;14.542;2023-06-05T06:50:46;16.10;88.00
54576;DHT22;40472;53.486;14.542;2023-06-05T06:53:12;16.20;90.40
54576;DHT22;40472;53.486;14.542;2023-06-05T06:55:37;16.20;89.30
54576;DHT22;40472;53.486;14.542;2023-06-05T06:58:04;16.30;90.00
54576;DHT22;40472;53.486;14.542;2023-06-05T07:00:31;16.50;89.80
54576;DHT22;40472;53.486;14.542;2023-06-05T07:02:56;16.50;88.20
54576;DHT22;40472;53.486;14.542;2023-06-05T07:05:22;16.60;88.30
54576;DHT22;40472;53.486;14.542;2023-06-05T07:07:49;16.70;88.00
54576;DHT22;40472;53.486;14.542;2023-06-05T07:10:14;16.70;89.50
54576;DHT22;40472;53.486;14.542;2023-06-05T07:12:40;16.70;90.40
54576;DHT22;40472;53.486;14.542;2023-06-05T07:15:06;16.60;93.90
54576;DHT22;40472;53.486;14.542;2023-06-05T07:17:32;16.60;88.70
54576;DHT22;40472;53.486;14.542;2023-06-05T07:19:58;16.70;90.10
54576;DHT22;40472;53.486;14.542;2023-06-05T07:22:26;17.00;85.90
54576;DHT22;40472;53.486;14.542;2023-06-05T07:24:56;17.00;90.10
54576;DHT22;40472;53.486;14.542;2023-06-05T07:27:22;17.20;90.10
54576;DHT22;40472;53.486;14.542;2023-06-05T07:29:48;17.20;87.00
54576;DHT22;40472;53.486;14.542;2023-06-05T07:32:14;17.30;90.20
54576;DHT22;40472;53.486;14.542;2023-06-05T07:34:40;17.40;90.90
54576;DHT22;40472;53.486;14.542;2023-06-05T07:37:06;17.40;90.00
54576;DHT22;40472;53.486;14.542;2023-06-05T07:39:35;17.50;88.60
54576;DHT22;40472;53.486;14.542;2023-06-05T07:42:01;17.40;90.20
54576;DHT22;40472;53.486;14.542;2023-06-05T07:44:27;17.50;88.80
54576;DHT22;40472;53.486;14.542;2023-06-05T07:46:53;17.70;84.90
54576;DHT22;40472;53.486;14.542;2023-06-05T07:49:19;17.80;87.40
54576;DHT22;40472;53.486;14.542;2023-06-05T07:51:46;17.90;91.00
54576;DHT22;40472;53.486;14.542;2023-06-05T07:54:16;17.90;90.20
54576;DHT22;40472;53.486;14.542;2023-06-05T07:56:42;18.00;85.60
54576;DHT22;40472;53.486;14.542;2023-06-05T07:59:08;18.20;85.80
54576;DHT22;40472;53.486;14.542;2023-06-05T08:01:35;18.20;82.30
54576;DHT22;40472;53.486;14.542;2023-06-05T08:04:05;18.20;87.20
54576;DHT22;40472;53.486;14.542;2023-06-05T08:06:31;18.30;79.50
54576;DHT22;40472;53.486;14.542;2023-06-05T08:08:59;18.40;81.90
54576;DHT22;40472;53.486;14.542;2023-06-05T08:11:25;18.30;81.00
54576;DHT22;40472;53.486;14.542;2023-06-05T08:13:52;18.40;82.50
54576;DHT22;40472;53.486;14.542;2023-06-05T08:16:18;18.50;85.20
54576;DHT22;40472;53.486;14.542;2023-06-05T08:18:44;18.50;77.10
54576;DHT22;40472;53.486;14.542;2023-06-05T08:21:10;18.50;82.20
54576;DHT22;40472;53.486;14.542;2023-06-05T08:23:36;18.60;74.60
54576;DHT22;40472;53.486;14.542;2023-06-05T08:26:02;18.70;73.40
54576;DHT22;40472;53.486;14.542;2023-06-05T08:28:35;18.70;77.30
54576;DHT22;40472;53.486;14.542;2023-06-05T08:31:01;18.80;76.50
54576;DHT22;40472;53.486;14.542;2023-06-05T08:33:27;18.80;74.10
54576;DHT22;40472;53.486;14.542;2023-06-05T08:35:53;18.90;83.40
54576;DHT22;40472;53.486;14.542;2023-06-05T08:38:20;18.90;77.50
54576;DHT22;40472;53.486;14.542;2023-06-05T08:40:47;19.00;82.40
54576;DHT22;40472;53.486;14.542;2023-06-05T08:43:16;19.10;72.30
54576;DHT22;40472;53.486;14.542;2023-06-05T08:45:42;19.10;73.40
54576;DHT22;40472;53.486;14.542;2023-06-05T08:48:09;19.20;76.80
54576;DHT22;40472;53.486;14.542;2023-06-05T08:50:37;19.10;71.20
54576;DHT22;40472;53.486;14.542;2023-06-05T08:53:04;19.10;72.90
54576;DHT22;40472;53.486;14.542;2023-06-05T08:55:31;19.10;74.40
54576;DHT22;40472;53.486;14.542;2023-06-05T08:57:58;19.30;76.60
54576;DHT22;40472;53.486;14.542;2023-06-05T09:00:25;19.40;76.10
54576;DHT22;40472;53.486;14.542;2023-06-05T09:02:50;19.50;75.60
54576;DHT22;40472;53.486;14.542;2023-06-05T09:05:17;19.60;72.10
54576;DHT22;40472;53.486;14.542;2023-06-05T09:07:43;19.70;73.30
54576;DHT22;40472;53.486;14.542;2023-06-05T09:10:25;19.80;70.70
54576;DHT22;40472;53.486;14.542;2023-06-05T09:12:55;19.90;71.30
54576;DHT22;40472;53.486;14.542;2023-06-05T09:15:22;19.90;70.30
54576;DHT22;40472;53.486;14.542;2023-06-05T09:20:27;19.90;69.10
54576;DHT22;40472;53.486;14.542;2023-06-05T09:22:55;20.00;67.50
54576;DHT22;40472;53.486;14.542;2023-06-05T09:25:20;20.10;72.60
54576;DHT22;40472;53.486;14.542;2023-06-05T09:28:05;20.10;72.20
54576;DHT22;40472;53.486;14.542;2023-06-05T09:30:32;20.20;68.40
54576;DHT22;40472;53.486;14.542;2023-06-05T09:33:08;20.10;66.80
54576;DHT22;40472;53.486;14.542;2023-06-05T09:35:34;20.10;67.80
54576;DHT22;40472;53.486;14.542;2023-06-05T09:38:11;20.00;68.40
54576;DHT22;40472;53.486;14.542;2023-06-05T09:40:50;19.90;70.20
54576;DHT22;40472;53.486;14.542;2023-06-05T09:43:21;20.10;67.00
54576;DHT22;40472;53.486;14.542;2023-06-05T09:45:48;20.30;65.80
54576;DHT22;40472;53.486;14.542;2023-06-05T09:48:14;20.30;71.10
54576;DHT22;40472;53.486;14.542;2023-06-05T09:50:40;20.30;64.90
54576;DHT22;40472;53.486;14.542;2023-06-05T09:53:09;20.40;65.00
54576;DHT22;40472;53.486;14.542;2023-06-05T09:55:35;20.60;66.70
54576;DHT22;40472;53.486;14.542;2023-06-05T09:58:04;20.70;64.90
54576;DHT22;40472;53.486;14.542;2023-06-05T10:00:40;20.80;68.90
54576;DHT22;40472;53.486;14.542;2023-06-05T10:03:14;20.90;70.00
54576;DHT22;40472;53.486;14.542;2023-06-05T10:05:44;20.90;68.10
54576;DHT22;40472;53.486;14.542;2023-06-05T10:08:13;20.90;63.10
54576;DHT22;40472;53.486;14.542;2023-06-05T10:10:40;21.10;63.60
54576;DHT22;40472;53.486;14.542;2023-06-05T10:13:06;21.10;64.10
54576;DHT22;40472;53.486;14.542;2023-06-05T10:15:33;21.10;63.20
54576;DHT22;40472;53.486;14.542;2023-06-05T10:18:00;21.10;59.70
54576;DHT22;40472;53.486;14.542;2023-06-05T10:20:26;21.00;58.40
54576;DHT22;40472;53.486;14.542;2023-06-05T10:22:53;21.20;58.50
54576;DHT22;40472;53.486;14.542;2023-06-05T10:25:20;21.20;60.30
54576;DHT22;40472;53.486;14.542;2023-06-05T10:28:13;21.10;61.20
54576;DHT22;40472;53.486;14.542;2023-06-05T10:30:52;21.20;62.50
54576;DHT22;40472;53.486;14.542;2023-06-05T10:39:08;21.60;62.30
54576;DHT22;40472;53.486;14.542;2023-06-05T10:41:34;21.90;62.70
54576;DHT22;40472;53.486;14.542;2023-06-05T10:44:00;21.90;60.40
54576;DHT22;40472;53.486;14.542;2023-06-05T10:46:32;22.00;61.40
54576;DHT22;40472;53.486;14.542;2023-06-05T10:49:11;22.00;62.60
54576;DHT22;40472;53.486;14.542;2023-06-05T10:51:43;22.10;60.00
54576;DHT22;40472;53.486;14.542;2023-06-05T10:57:00;22.20;61.00
54576;DHT22;40472;53.486;14.542;2023-06-05T10:59:32;22.30;60.80
54576;DHT22;40472;53.486;14.542;2023-06-05T11:15:15;22.70;59.00
54576;DHT22;40472;53.486;14.542;2023-06-05T11:27:51;22.80;60.20
54576;DHT22;40472;53.486;14.542;2023-06-05T11:30:22;22.70;60.50
54576;DHT22;40472;53.486;14.542;2023-06-05T11:32:50;22.60;60.50
54576;DHT22;40472;53.486;14.542;2023-06-05T11:35:25;22.60;60.50
54576;DHT22;40472;53.486;14.542;2023-06-05T11:38:09;22.60;60.30
54576;DHT22;40472;53.486;14.542;2023-06-05T11:40:35;22.50;59.50
54576;DHT22;40472;53.486;14.542;2023-06-05T11:43:08;22.70;58.40
54576;DHT22;40472;53.486;14.542;2023-06-05T11:45:36;22.70;57.90
54576;DHT22;40472;53.486;14.542;2023-06-05T11:48:12;23.00;58.30
54576;DHT22;40472;53.486;14.542;2023-06-05T11:50:51;23.20;60.00
54576;DHT22;40472;53.486;14.542;2023-06-05T11:53:18;23.10;59.70
54576;DHT22;40472;53.486;14.542;2023-06-05T11:55:44;23.00;59.90
54576;DHT22;40472;53.486;14.542;2023-06-05T11:58:35;22.80;59.00
54576;DHT22;40472;53.486;14.542;2023-06-05T12:01:18;22.80;61.00
54576;DHT22;40472;53.486;14.542;2023-06-05T12:03:48;22.80;59.40
54576;DHT22;40472;53.486;14.542;2023-06-05T12:06:16;22.80;61.90
54576;DHT22;40472;53.486;14.542;2023-06-05T12:08:43;23.10;59.30
54576;DHT22;40472;53.486;14.542;2023-06-05T12:11:24;23.00;57.30
54576;DHT22;40472;53.486;14.542;2023-06-05T12:13:55;23.20;57.50
54576;DHT22;40472;53.486;14.542;2023-06-05T12:16:35;23.40;56.60
54576;DHT22;40472;53.486;14.542;2023-06-05T12:19:14;23.40;58.60
54576;DHT22;40472;53.486;14.542;2023-06-05T12:21:43;23.40;56.60
54576;DHT22;40472;53.486;14.542;2023-06-05T12:24:09;23.80;57.50
54576;DHT22;40472;53.486;14.542;2023-06-05T12:26:54;23.40;56.20
54576;DHT22;40472;53.486;14.542;2023-06-05T12:29:25;23.10;56.70
54576;DHT22;40472;53.486;14.542;2023-06-05T12:31:51;23.10;55.60
54576;DHT22;40472;53.486;14.542;2023-06-05T12:34:17;23.30;57.10
54576;DHT22;40472;53.486;14.542;2023-06-05T12:36:44;23.40;59.90
54576;DHT22;40472;53.486;14.542;2023-06-05T12:39:11;23.40;58.80
54576;DHT22;40472;53.486;14.542;2023-06-05T12:41:41;23.30;55.80
54576;DHT22;40472;53.486;14.542;2023-06-05T12:44:07;23.20;56.60
54576;DHT22;40472;53.486;14.542;2023-06-05T12:46:34;23.40;56.40
54576;DHT22;40472;53.486;14.542;2023-06-05T12:49:02;23.30;56.70
54576;DHT22;40472;53.486;14.542;2023-06-05T12:51:29;23.20;56.20
54576;DHT22;40472;53.486;14.542;2023-06-05T12:53:56;23.20;55.10
54576;DHT22;40472;53.486;14.542;2023-06-05T12:56:25;23.50;56.10
54576;DHT22;40472;53.486;14.542;2023-06-05T12:58:54;23.50;56.20
54576;DHT22;40472;53.486;14.542;2023-06-05T13:01:21;23.50;53.20
54576;DHT22;40472;53.486;14.542;2023-06-05T13:03:47;23.70;53.80
54576;DHT22;40472;53.486;14.542;2023-06-05T13:06:13;23.90;55.80
54576;DHT22;40472;53.486;14.542;2023-06-05T13:08:39;23.70;55.30
54576;DHT22;40472;53.486;14.542;2023-06-05T13:11:05;24.00;57.10
54576;DHT22;40472;53.486;14.542;2023-06-05T13:13:30;24.10;54.80
54576;DHT22;40472;53.486;14.542;2023-06-05T13:15:58;24.10;55.50
54576;DHT22;40472;53.486;14.542;2023-06-05T13:18:26;23.90;55.10
54576;DHT22;40472;53.486;14.542;2023-06-05T13:20:53;23.70;56.80
54576;DHT22;40472;53.486;14.542;2023-06-05T13:23:18;23.50;56.40
54576;DHT22;40472;53.486;14.542;2023-06-05T13:25:44;23.50;54.20
54576;DHT22;40472;53.486;14.542;2023-06-05T13:28:11;23.60;53.80
54576;DHT22;40472;53.486;14.542;2023-06-05T13:30:36;23.70;57.70
54576;DHT22;40472;53.486;14.542;2023-06-05T13:33:02;23.80;57.10
54576;DHT22;40472;53.486;14.542;2023-06-05T13:35:28;23.90;54.90
54576;DHT22;40472;53.486;14.542;2023-06-05T13:37:54;24.00;53.20
54576;DHT22;40472;53.486;14.542;2023-06-05T13:40:19;24.20;57.10
54576;DHT22;40472;53.486;14.542;2023-06-05T13:42:45;24.10;54.20
54576;DHT22;40472;53.486;14.542;2023-06-05T13:45:11;24.10;52.70
54576;DHT22;40472;53.486;14.542;2023-06-05T13:47:37;24.40;52.60
54576;DHT22;40472;53.486;14.542;2023-06-05T13:50:04;24.30;55.20
54576;DHT22;40472;53.486;14.542;2023-06-05T13:52:30;24.40;54.30
54576;DHT22;40472;53.486;14.542;2023-06-05T13:54:56;24.20;56.30
54576;DHT22;40472;53.486;14.542;2023-06-05T13:57:22;24.40;55.00
54576;DHT22;40472;53.486;14.542;2023-06-05T13:59:48;24.30;54.60
54576;DHT22;40472;53.486;14.542;2023-06-05T14:02:14;24.20;55.40
54576;DHT22;40472;53.486;14.542;2023-06-05T14:04:39;24.30;55.70
54576;DHT22;40472;53.486;14.542;2023-06-05T14:07:06;24.00;53.10
54576;DHT22;40472;53.486;14.542;2023-06-05T14:09:31;24.10;53.60
54576;DHT22;40472;53.486;14.542;2023-06-05T14:11:58;24.20;54.70
54576;DHT22;40472;53.486;14.542;2023-06-05T14:14:25;24.40;54.30
54576;DHT22;40472;53.486;14.542;2023-06-05T14:16:51;24.40;56.90
54576;DHT22;40472;53.486;14.542;2023-06-05T14:19:17;24.30;55.90
54576;DHT22;40472;53.486;14.542;2023-06-05T14:21:43;24.30;55.00
54576;DHT22;40472;53.486;14.542;2023-06-05T14:24:15;24.20;55.00
54576;DHT22;40472;53.486;14.542;2023-06-05T14:26:45;24.30;56.60
54576;DHT22;40472;53.486;14.542;2023-06-05T14:29:11;24.10;58.80
54576;DHT22;40472;53.486;14.542;2023-06-05T14:31:37;24.40;60.10
54576;DHT22;40472;53.486;14.542;2023-06-05T14:34:03;24.40;57.40
54576;DHT22;40472;53.486;14.542;2023-06-05T14:36:29;24.50;57.30
54576;DHT22;40472;53.486;14.542;2023-06-05T14:38:54;24.50;57.80
54576;DHT22;40472;53.486;14.542;2023-06-05T14:41:20;24.50;54.70
54576;DHT22;40472;53.486;14.542;2023-06-05T14:43:46;24.40;58.90
54576;DHT22;40472;53.486;14.542;2023-06-05T14:46:12;24.50;57.10
54576;DHT22;40472;53.486;14.542;2023-06-05T14:48:38;24.30;57.60
54576;DHT22;40472;53.486;14.542;2023-06-05T14:51:04;24.00;58.40
54576;DHT22;40472;53.486;14.542;2023-06-05T14:53:29;24.00;58.50
54576;DHT22;40472;53.486;14.542;2023-06-05T14:55:57;24.10;59.70
54576;DHT22;40472;53.486;14.542;2023-06-05T14:58:27;24.00;60.80
54576;DHT22;40472;53.486;14.542;2023-06-05T15:00:53;24.10;58.30
54576;DHT22;40472;53.486;14.542;2023-06-05T15:03:19;24.00;58.20
54576;DHT22;40472;53.486;14.542;2023-06-05T15:05:45;23.90;59.50
54576;DHT22;40472;53.486;14.542;2023-06-05T15:08:10;23.70;63.20
54576;DHT22;40472;53.486;14.542;2023-06-05T15:10:36;23.60;59.30
54576;DHT22;40472;53.486;14.542;2023-06-05T15:13:02;23.70;59.60
54576;DHT22;40472;53.486;14.542;2023-06-05T15:15:28;23.70;58.80
54576;DHT22;40472;53.486;14.542;2023-06-05T15:17:54;23.70;60.80
54576;DHT22;40472;53.486;14.542;2023-06-05T15:20:21;23.60;59.70
54576;DHT22;40472;53.486;14.542;2023-06-05T15:22:47;23.70;60.70
54576;DHT22;40472;53.486;14.542;2023-06-05T15:25:13;23.50;63.40
54576;DHT22;40472;53.486;14.542;2023-06-05T15:27:39;23.60;62.30
54576;DHT22;40472;53.486;14.542;2023-06-05T15:30:23;23.60;61.40
54576;DHT22;40472;53.486;14.542;2023-06-05T15:32:49;23.90;61.90
54576;DHT22;40472;53.486;14.542;2023-06-05T15:35:15;24.20;59.70
54576;DHT22;40472;53.486;14.542;2023-06-05T15:37:41;24.40;59.40
54576;DHT22;40472;53.486;14.542;2023-06-05T15:40:07;24.60;59.80
54576;DHT22;40472;53.486;14.542;2023-06-05T15:42:35;25.00;60.50
54576;DHT22;40472;53.486;14.542;2023-06-05T15:45:11;25.30;58.30
54576;DHT22;40472;53.486;14.542;2023-06-05T15:47:39;25.70;57.50
54576;DHT22;40472;53.486;14.542;2023-06-05T15:50:05;26.60;55.80
54576;DHT22;40472;53.486;14.542;2023-06-05T15:52:34;27.00;55.30
54576;DHT22;40472;53.486;14.542;2023-06-05T15:55:00;27.00;54.90
54576;DHT22;40472;53.486;14.542;2023-06-05T15:57:26;26.80;54.90
54576;DHT22;40472;53.486;14.542;2023-06-05T15:59:52;26.70;55.20
54576;DHT22;40472;53.486;14.542;2023-06-05T16:02:19;26.70;55.40